SAS22E ENBR-ENGM
Flight info
| Callsign | SAS22E |
|---|---|
| Flight time | 0h 36m |
| Altitude | 21000 |
| Route | GOKAB DCT ULVAN DCT ADOPI |
| Aircraft | A21N/M-SDE2E3FGHIRWXY/LB1 |
Departure
| Time | 2026-05-05 18:12 |
|---|---|
| Airport | Bergen Airport, Flesland (ENBR) |
Arrival
| Time | 2026-05-05 18:49 |
|---|---|
| Airport | Oslo-Gardermoen International Airport (ENGM) |
| Time | Latitude | Longitude | Altitude | Speed | Heading |
|---|---|---|---|---|---|
| 2026-05-05 17:39 | 60.28858 | 5.22565 | 178 ft | 0 kts | 59° |
| 2026-05-05 18:03 | 60.28858 | 5.22564 | 178 ft | 1 kts | 59° |
| 2026-05-05 18:04 | 60.28845 | 5.22521 | 178 ft | 4 kts | 59° |
| 2026-05-05 18:04 | 60.28832 | 5.22476 | 174 ft | 3 kts | 59° |
| 2026-05-05 18:04 | 60.28830 | 5.22471 | 174 ft | 1 kts | 59° |
| 2026-05-05 18:08 | 60.28832 | 5.22486 | 175 ft | 4 kts | 94° |
| 2026-05-05 18:08 | 60.28800 | 5.22472 | 173 ft | 7 kts | 214° |
| 2026-05-05 18:08 | 60.28745 | 5.22470 | 171 ft | 9 kts | 176° |
| 2026-05-05 18:09 | 60.28679 | 5.22427 | 170 ft | 11 kts | 223° |
| 2026-05-05 18:09 | 60.28600 | 5.22388 | 170 ft | 13 kts | 175° |
| 2026-05-05 18:09 | 60.28507 | 5.22418 | 169 ft | 15 kts | 170° |
| 2026-05-05 18:09 | 60.28400 | 5.22456 | 167 ft | 16 kts | 170° |
| 2026-05-05 18:10 | 60.28311 | 5.22482 | 163 ft | 9 kts | 187° |
| 2026-05-05 18:10 | 60.28279 | 5.22388 | 159 ft | 4 kts | 262° |
| 2026-05-05 18:10 | 60.28278 | 5.22380 | 159 ft | 0 kts | 263° |
| 2026-05-05 18:11 | 60.28278 | 5.22378 | 159 ft | 1 kts | 263° |
| 2026-05-05 18:11 | 60.28277 | 5.22272 | 160 ft | 11 kts | 279° |
| 2026-05-05 18:11 | 60.28330 | 5.22152 | 164 ft | 14 kts | 350° |
| 2026-05-05 18:11 | 60.28472 | 5.22108 | 168 ft | 43 kts | 349° |
| 2026-05-05 18:12 | 60.28999 | 5.21927 | 167 ft | 107 kts | 353° |
| 2026-05-05 18:12 | 60.29918 | 5.21611 | 210 ft | 152 kts | 351° |
| 2026-05-05 18:12 | 60.30930 | 5.21345 | 866 ft | 144 kts | 349° |
| 2026-05-05 18:12 | 60.31957 | 5.21001 | 1320 ft | 163 kts | 348° |
| 2026-05-05 18:13 | 60.33165 | 5.20589 | 1777 ft | 188 kts | 349° |
| 2026-05-05 18:13 | 60.34560 | 5.20124 | 2253 ft | 219 kts | 349° |
| 2026-05-05 18:13 | 60.36152 | 5.19581 | 2923 ft | 241 kts | 349° |
| 2026-05-05 18:13 | 60.37836 | 5.19003 | 3901 ft | 248 kts | 349° |
| 2026-05-05 18:14 | 60.39558 | 5.18412 | 4887 ft | 254 kts | 349° |
| 2026-05-05 18:14 | 60.41307 | 5.17809 | 5533 ft | 256 kts | 349° |
| 2026-05-05 18:14 | 60.43053 | 5.17209 | 5832 ft | 257 kts | 348° |
| 2026-05-05 18:14 | 60.44843 | 5.16606 | 5951 ft | 258 kts | 350° |
| 2026-05-05 18:15 | 60.46637 | 5.16625 | 5979 ft | 261 kts | 9° |
| 2026-05-05 18:15 | 60.48290 | 5.18050 | 5985 ft | 266 kts | 33° |
| 2026-05-05 18:15 | 60.49547 | 5.20801 | 5993 ft | 270 kts | 57° |
| 2026-05-05 18:15 | 60.50178 | 5.24399 | 5997 ft | 273 kts | 77° |
| 2026-05-05 18:16 | 60.50336 | 5.28246 | 6021 ft | 274 kts | 90° |
| 2026-05-05 18:16 | 60.50182 | 5.32132 | 6775 ft | 278 kts | 95° |
| 2026-05-05 18:16 | 60.49965 | 5.36051 | 7765 ft | 282 kts | 95° |
| 2026-05-05 18:16 | 60.49738 | 5.40024 | 8778 ft | 286 kts | 95° |
| 2026-05-05 18:17 | 60.49509 | 5.44063 | 9775 ft | 291 kts | 95° |
| 2026-05-05 18:17 | 60.49274 | 5.48229 | 10497 ft | 307 kts | 95° |
| 2026-05-05 18:17 | 60.49019 | 5.52699 | 10907 ft | 331 kts | 95° |
| 2026-05-05 18:17 | 60.48740 | 5.57503 | 11302 ft | 354 kts | 95° |
| 2026-05-05 18:18 | 60.48441 | 5.62543 | 12031 ft | 364 kts | 95° |
| 2026-05-05 18:18 | 60.48131 | 5.67691 | 12882 ft | 370 kts | 95° |
| 2026-05-05 18:18 | 60.47815 | 5.72917 | 13728 ft | 376 kts | 95° |
| 2026-05-05 18:18 | 60.47493 | 5.78224 | 14484 ft | 383 kts | 95° |
| 2026-05-05 18:19 | 60.47165 | 5.83618 | 15248 ft | 388 kts | 95° |
| 2026-05-05 18:19 | 60.46832 | 5.89022 | 15996 ft | 394 kts | 96° |
| 2026-05-05 18:19 | 60.46486 | 5.94569 | 16732 ft | 400 kts | 96° |
| 2026-05-05 18:19 | 60.46134 | 6.00198 | 17441 ft | 405 kts | 96° |
| 2026-05-05 18:20 | 60.45777 | 6.05903 | 18141 ft | 411 kts | 96° |
| 2026-05-05 18:20 | 60.45411 | 6.11687 | 18715 ft | 417 kts | 96° |
| 2026-05-05 18:20 | 60.45038 | 6.17554 | 19212 ft | 424 kts | 96° |
| 2026-05-05 18:20 | 60.44654 | 6.23548 | 19681 ft | 432 kts | 96° |
| 2026-05-05 18:21 | 60.44261 | 6.29636 | 20157 ft | 440 kts | 97° |
| 2026-05-05 18:21 | 60.43859 | 6.35834 | 20620 ft | 447 kts | 97° |
| 2026-05-05 18:21 | 60.43452 | 6.42136 | 20945 ft | 454 kts | 96° |
| 2026-05-05 18:21 | 60.43203 | 6.48376 | 20989 ft | 438 kts | 92° |
| 2026-05-05 18:22 | 60.43040 | 6.54537 | 20979 ft | 437 kts | 92° |
| 2026-05-05 18:22 | 60.42877 | 6.60680 | 20967 ft | 437 kts | 92° |
| 2026-05-05 18:22 | 60.42709 | 6.66821 | 20963 ft | 437 kts | 92° |
| 2026-05-05 18:22 | 60.42536 | 6.72955 | 20967 ft | 437 kts | 92° |
| 2026-05-05 18:23 | 60.42359 | 6.79108 | 20973 ft | 438 kts | 92° |
| 2026-05-05 18:23 | 60.42179 | 6.85263 | 20956 ft | 439 kts | 92° |
| 2026-05-05 18:23 | 60.41997 | 6.91429 | 20954 ft | 439 kts | 92° |
| 2026-05-05 18:23 | 60.41812 | 6.97608 | 20955 ft | 439 kts | 92° |
| 2026-05-05 18:24 | 60.41624 | 7.03772 | 20955 ft | 439 kts | 92° |
| 2026-05-05 18:24 | 60.41435 | 7.09876 | 20954 ft | 439 kts | 92° |
| 2026-05-05 18:24 | 60.41242 | 7.16035 | 20961 ft | 438 kts | 92° |
| 2026-05-05 18:24 | 60.41042 | 7.22183 | 20969 ft | 439 kts | 93° |
| 2026-05-05 18:25 | 60.40841 | 7.28350 | 20960 ft | 439 kts | 92° |
| 2026-05-05 18:25 | 60.40773 | 7.30436 | 20960 ft | 439 kts | 93° |
| 2026-05-05 18:25 | 60.40433 | 7.40683 | 20957 ft | 439 kts | 93° |
| 2026-05-05 18:25 | 60.40224 | 7.46835 | 20951 ft | 440 kts | 93° |
| 2026-05-05 18:26 | 60.40014 | 7.53013 | 20959 ft | 440 kts | 93° |
| 2026-05-05 18:26 | 60.39801 | 7.59185 | 20958 ft | 440 kts | 93° |
| 2026-05-05 18:26 | 60.39583 | 7.65372 | 20957 ft | 440 kts | 94° |
| 2026-05-05 18:26 | 60.39362 | 7.71546 | 20957 ft | 440 kts | 94° |
| 2026-05-05 18:27 | 60.39140 | 7.77723 | 20959 ft | 440 kts | 94° |
| 2026-05-05 18:27 | 60.38915 | 7.83900 | 20952 ft | 440 kts | 94° |
| 2026-05-05 18:27 | 60.38687 | 7.90068 | 20953 ft | 440 kts | 94° |
| 2026-05-05 18:27 | 60.38454 | 7.96239 | 20953 ft | 440 kts | 94° |
| 2026-05-05 18:28 | 60.37988 | 8.08510 | 20952 ft | 440 kts | 94° |
| 2026-05-05 18:28 | 60.37749 | 8.14680 | 20947 ft | 441 kts | 94° |
| 2026-05-05 18:28 | 60.37506 | 8.20855 | 20949 ft | 441 kts | 94° |
| 2026-05-05 18:29 | 60.37260 | 8.27034 | 20948 ft | 441 kts | 94° |
| 2026-05-05 18:29 | 60.37012 | 8.33203 | 20943 ft | 441 kts | 94° |
| 2026-05-05 18:29 | 60.36760 | 8.39397 | 20934 ft | 441 kts | 94° |
| 2026-05-05 18:29 | 60.36505 | 8.45562 | 20937 ft | 441 kts | 94° |
| 2026-05-05 18:30 | 60.36247 | 8.51733 | 20937 ft | 440 kts | 94° |
| 2026-05-05 18:30 | 60.35987 | 8.57881 | 20919 ft | 437 kts | 95° |
| 2026-05-05 18:30 | 60.35727 | 8.63993 | 20603 ft | 437 kts | 94° |
| 2026-05-05 18:30 | 60.35467 | 8.70089 | 20324 ft | 434 kts | 94° |
| 2026-05-05 18:31 | 60.35204 | 8.76145 | 20080 ft | 430 kts | 94° |
| 2026-05-05 18:31 | 60.34941 | 8.82136 | 19823 ft | 427 kts | 95° |
| 2026-05-05 18:31 | 60.34766 | 8.86068 | 19653 ft | 424 kts | 95° |
| 2026-05-05 18:31 | 60.34417 | 8.93882 | 19307 ft | 419 kts | 95° |
| 2026-05-05 18:32 | 60.34152 | 8.99707 | 19056 ft | 415 kts | 95° |
| 2026-05-05 18:32 | 60.33889 | 9.05495 | 18651 ft | 412 kts | 94° |
| 2026-05-05 18:32 | 60.33624 | 9.11247 | 18188 ft | 412 kts | 94° |
| 2026-05-05 18:32 | 60.33447 | 9.15073 | 17826 ft | 412 kts | 94° |
| 2026-05-05 18:33 | 60.33183 | 9.20822 | 17285 ft | 411 kts | 94° |
| 2026-05-05 18:33 | 60.32918 | 9.26520 | 16758 ft | 404 kts | 94° |
| 2026-05-05 18:33 | 60.32654 | 9.32119 | 16260 ft | 397 kts | 94° |
| 2026-05-05 18:33 | 60.32375 | 9.37627 | 15788 ft | 391 kts | 96° |
| 2026-05-05 18:34 | 60.31875 | 9.42933 | 15484 ft | 380 kts | 101° |
| 2026-05-05 18:34 | 60.31329 | 9.48067 | 15213 ft | 371 kts | 102° |
| 2026-05-05 18:34 | 60.30785 | 9.53144 | 14909 ft | 369 kts | 102° |
| 2026-05-05 18:34 | 60.30243 | 9.58201 | 14527 ft | 368 kts | 102° |
| 2026-05-05 18:35 | 60.29703 | 9.63242 | 14115 ft | 367 kts | 102° |
| 2026-05-05 18:35 | 60.29165 | 9.68269 | 13690 ft | 367 kts | 102° |
| 2026-05-05 18:35 | 60.28624 | 9.73281 | 13216 ft | 367 kts | 102° |
| 2026-05-05 18:35 | 60.28082 | 9.78295 | 12768 ft | 365 kts | 102° |
| 2026-05-05 18:36 | 60.27535 | 9.83289 | 12320 ft | 363 kts | 103° |
| 2026-05-05 18:36 | 60.26616 | 9.87949 | 11862 ft | 356 kts | 120° |
| 2026-05-05 18:36 | 60.25321 | 9.92148 | 11443 ft | 349 kts | 123° |
| 2026-05-05 18:36 | 60.24016 | 9.96216 | 11028 ft | 343 kts | 123° |
| 2026-05-05 18:37 | 60.22743 | 10.00219 | 10678 ft | 335 kts | 123° |
| 2026-05-05 18:37 | 60.21513 | 10.04123 | 10462 ft | 325 kts | 123° |
| 2026-05-05 18:37 | 60.20328 | 10.07899 | 10295 ft | 313 kts | 123° |
| 2026-05-05 18:37 | 60.19191 | 10.11528 | 10122 ft | 301 kts | 123° |
| 2026-05-05 18:38 | 60.18101 | 10.15004 | 9940 ft | 288 kts | 123° |
| 2026-05-05 18:38 | 60.17059 | 10.18321 | 9757 ft | 274 kts | 123° |
| 2026-05-05 18:38 | 60.16074 | 10.21457 | 9481 ft | 265 kts | 123° |
| 2026-05-05 18:38 | 60.15079 | 10.24611 | 9038 ft | 264 kts | 123° |
| 2026-05-05 18:39 | 60.14112 | 10.27676 | 8877 ft | 264 kts | 123° |
| 2026-05-05 18:39 | 60.13126 | 10.30800 | 8870 ft | 260 kts | 123° |
| 2026-05-05 18:39 | 60.12177 | 10.33807 | 8877 ft | 257 kts | 123° |
| 2026-05-05 18:39 | 60.11204 | 10.36886 | 8885 ft | 258 kts | 123° |
| 2026-05-05 18:40 | 60.10258 | 10.39875 | 8896 ft | 257 kts | 123° |
| 2026-05-05 18:40 | 60.09307 | 10.42874 | 8724 ft | 253 kts | 123° |
| 2026-05-05 18:40 | 60.08360 | 10.45856 | 8369 ft | 255 kts | 123° |
| 2026-05-05 18:40 | 60.07391 | 10.48901 | 7922 ft | 260 kts | 123° |
| 2026-05-05 18:41 | 60.06414 | 10.51970 | 7429 ft | 263 kts | 123° |
| 2026-05-05 18:41 | 60.05407 | 10.55126 | 6947 ft | 268 kts | 123° |
| 2026-05-05 18:41 | 60.04408 | 10.58256 | 6492 ft | 267 kts | 123° |
| 2026-05-05 18:41 | 60.03411 | 10.61375 | 6001 ft | 265 kts | 123° |
| 2026-05-05 18:42 | 60.02418 | 10.64480 | 5530 ft | 265 kts | 123° |
| 2026-05-05 18:42 | 60.01424 | 10.67571 | 5058 ft | 264 kts | 123° |
| 2026-05-05 18:42 | 60.00445 | 10.70609 | 4585 ft | 262 kts | 123° |
| 2026-05-05 18:42 | 59.99462 | 10.73656 | 4138 ft | 259 kts | 123° |
| 2026-05-05 18:43 | 59.98507 | 10.76619 | 3993 ft | 247 kts | 123° |
| 2026-05-05 18:43 | 59.97703 | 10.79568 | 3967 ft | 240 kts | 107° |
| 2026-05-05 18:43 | 59.97609 | 10.82839 | 3977 ft | 234 kts | 78° |
| 2026-05-05 18:43 | 59.97982 | 10.85876 | 3980 ft | 217 kts | 72° |
| 2026-05-05 18:44 | 59.98375 | 10.88729 | 3985 ft | 213 kts | 72° |
| 2026-05-05 18:44 | 59.98763 | 10.91614 | 3993 ft | 214 kts | 73° |
| 2026-05-05 18:44 | 59.99184 | 10.94454 | 3999 ft | 212 kts | 63° |
| 2026-05-05 18:44 | 60.00088 | 10.96683 | 3993 ft | 207 kts | 30° |
| 2026-05-05 18:45 | 60.01375 | 10.97884 | 4003 ft | 203 kts | 15° |
| 2026-05-05 18:45 | 60.02737 | 10.98636 | 3947 ft | 214 kts | 11° |
| 2026-05-05 18:45 | 60.04195 | 10.99344 | 3708 ft | 211 kts | 11° |
| 2026-05-05 18:45 | 60.05581 | 11.00056 | 3484 ft | 198 kts | 11° |
| 2026-05-05 18:46 | 60.06885 | 11.00744 | 3236 ft | 190 kts | 12° |
| 2026-05-05 18:46 | 60.08144 | 11.01449 | 2949 ft | 185 kts | 12° |
| 2026-05-05 18:46 | 60.09368 | 11.02146 | 2668 ft | 181 kts | 12° |
| 2026-05-05 18:46 | 60.10558 | 11.02827 | 2425 ft | 173 kts | 12° |
| 2026-05-05 18:47 | 60.11662 | 11.03461 | 2195 ft | 161 kts | 11° |
| 2026-05-05 18:47 | 60.12731 | 11.04073 | 1958 ft | 159 kts | 11° |
| 2026-05-05 18:47 | 60.13790 | 11.04680 | 1743 ft | 158 kts | 11° |
| 2026-05-05 18:47 | 60.14836 | 11.05281 | 1483 ft | 159 kts | 12° |
| 2026-05-05 18:48 | 60.15902 | 11.05893 | 1243 ft | 159 kts | 12° |
| 2026-05-05 18:48 | 60.16969 | 11.06506 | 1021 ft | 160 kts | 14° |
| 2026-05-05 18:48 | 60.18031 | 11.07112 | 789 ft | 154 kts | 14° |
| 2026-05-05 18:48 | 60.18961 | 11.07637 | 674 ft | 120 kts | 16° |
| 2026-05-05 18:49 | 60.19564 | 11.07990 | 679 ft | 58 kts | 18° |
| 2026-05-05 18:49 | 60.19874 | 11.08180 | 680 ft | 23 kts | 4° |
| 2026-05-05 18:49 | 60.19934 | 11.08319 | 681 ft | 17 kts | 120° |
| 2026-05-05 18:49 | 60.19893 | 11.08453 | 678 ft | 1 kts | 109° |
| 2026-05-05 18:50 | 60.19883 | 11.08515 | 683 ft | 12 kts | 107° |
| 2026-05-05 18:51 | 60.19857 | 11.08694 | 684 ft | 15 kts | 105° |
| 2026-05-05 18:51 | 60.19800 | 11.08728 | 681 ft | 10 kts | 166° |
| 2026-05-05 18:51 | 60.19758 | 11.08854 | 684 ft | 13 kts | 105° |
| 2026-05-05 18:51 | 60.19731 | 11.09054 | 688 ft | 16 kts | 106° |
| 2026-05-05 18:52 | 60.19697 | 11.09290 | 685 ft | 19 kts | 106° |
| 2026-05-05 18:52 | 60.19669 | 11.09401 | 686 ft | 9 kts | 166° |
| 2026-05-05 18:52 | 60.19604 | 11.09369 | 690 ft | 5 kts | 195° |
| 2026-05-05 18:52 | 60.19578 | 11.09353 | 690 ft | 1 kts | 197° |
| 2026-05-05 18:53 | 60.19577 | 11.09352 | 690 ft | 0 kts | 197° |
| 2026-05-05 18:56 | 60.19576 | 11.09352 | 690 ft | 0 kts | 196° |